Ana Sayfa
METAR-TAF:

METAR-TAF

Havaalanları :

Vršac, Sırbistan

Enlem: 45-09N, Boylam: 021-19E, yükseklik: 83 m

Güncel hava durumu gözlemi

Rapor saat 15:30 UTC de 27 dakika önce yapıldı.
Rüzgar kuzeybatıdan 9 kt
Sıcaklık 12°C
Nem 30%
Basınç 1021 hPa
Görüş mesafesi 10 km veya daha fazla
1500 m altında bulut yok ve kümülonimbus yok

METAR: LYVR 241530Z 32009KT CAVOK 12/M05 Q1021 NOSIG

Saat: 16:57 (15:57 UTC)

Tahmin

Rapor saat 11:00 UTC de 4 saat ve 57 dakika önce yapıldı.
Ayın 24'si saat 12 UTC'den ayın 25'si saat 12 UTC'ye kadar geçerli Tahmin
Rüzgar kuzeybatıdan 15 kt
Görüş mesafesi 10 km veya daha fazla
1500 m altında bulut yok ve kümülonimbus yok
Dönüşüyor
ayın 24'si saat 17 UTC'den ayın 24'si saat 19 UTC'ye kadar
Rüzgar güneybatıdan 6 kt
Dönüşüyor
ayın 24'si saat 23 UTC'den ayın 25'si saat 01 UTC'ye kadar
Rüzgar güney/güneydoğudan 15 kt

TAF: LYVR 241100Z 2412/2512 32015KT CAVOK TX14/2512Z TN05/2500Z BECMG 2417/2419 22006KT BECMG 2423/2501 16015KT

4.000'den fazla havaalanı için hava durumu gözlemleri ve tahminleri (METAR ve TAF raporları).

Kullanılabilir istasyonlar harita üzerinde sarı ve kırmızı noktalarla gösterilir.

İstasyonun adını görmek için fareyi noktanın üzerinde gezdirin.

Sonrasında hava gözlem ve tahminlerini görmek için tıklayın.

Haritayı değiştirmek için: yaklaştırmak için siyah artı işaretli yeşil düğmeye ve uzaklaştırmak için de eksi işaretli düğmeye hızla tıklayın; bitişik haritalar için yeşil okları kullanın.


METAR-TAF: